sensor_id;sensor_type;location;lat;lon;timestamp;pressure;altitude;pressure_sealevel;temperature;humidity
72262;BME280;60173;52.112;8.648;2023-05-12T00:00:06;100587.19;;;11.82;100.00
72262;BME280;60173;52.112;8.648;2023-05-12T00:02:33;100587.38;;;11.71;100.00
72262;BME280;60173;52.112;8.648;2023-05-12T00:04:59;100587.09;;;11.59;100.00
72262;BME280;60173;52.112;8.648;2023-05-12T00:07:26;100590.84;;;11.63;100.00
72262;BME280;60173;52.112;8.648;2023-05-12T00:09:53;100584.16;;;11.56;100.00
72262;BME280;60173;52.112;8.648;2023-05-12T00:12:19;100584.38;;;11.59;100.00
72262;BME280;60173;52.112;8.648;2023-05-12T00:14:45;100586.00;;;11.60;100.00
72262;BME280;60173;52.112;8.648;2023-05-12T00:17:12;100589.41;;;11.52;100.00
72262;BME280;60173;52.112;8.648;2023-05-12T00:19:38;100592.41;;;11.37;100.00
72262;BME280;60173;52.112;8.648;2023-05-12T00:22:04;100610.53;;;11.41;100.00
72262;BME280;60173;52.112;8.648;2023-05-12T00:24:31;100606.59;;;11.34;100.00
72262;BME280;60173;52.112;8.648;2023-05-12T00:26:57;100615.75;;;11.24;100.00
72262;BME280;60173;52.112;8.648;2023-05-12T00:29:23;100613.63;;;11.21;100.00
72262;BME280;60173;52.112;8.648;2023-05-12T00:31:50;100613.50;;;11.12;100.00
72262;BME280;60173;52.112;8.648;2023-05-12T00:34:16;100612.84;;;11.01;100.00
72262;BME280;60173;52.112;8.648;2023-05-12T00:36:42;100623.00;;;10.96;100.00
72262;BME280;60173;52.112;8.648;2023-05-12T00:39:09;100628.09;;;10.83;100.00
72262;BME280;60173;52.112;8.648;2023-05-12T00:41:35;100624.84;;;10.81;100.00
72262;BME280;60173;52.112;8.648;2023-05-12T00:44:02;100627.66;;;10.76;100.00
72262;BME280;60173;52.112;8.648;2023-05-12T00:46:28;100628.41;;;10.82;100.00
72262;BME280;60173;52.112;8.648;2023-05-12T00:48:54;100626.38;;;10.88;100.00
72262;BME280;60173;52.112;8.648;2023-05-12T00:51:21;100619.34;;;10.86;100.00
72262;BME280;60173;52.112;8.648;2023-05-12T00:53:48;100623.84;;;10.77;100.00
72262;BME280;60173;52.112;8.648;2023-05-12T00:56:17;100623.19;;;10.85;100.00
72262;BME280;60173;52.112;8.648;2023-05-12T00:58:44;100621.06;;;10.82;100.00
72262;BME280;60173;52.112;8.648;2023-05-12T01:01:11;100619.66;;;10.85;100.00
72262;BME280;60173;52.112;8.648;2023-05-12T01:03:37;100618.03;;;10.84;100.00
72262;BME280;60173;52.112;8.648;2023-05-12T01:08:33;100613.63;;;10.69;100.00
72262;BME280;60173;52.112;8.648;2023-05-12T01:11:00;100621.50;;;10.71;100.00
72262;BME280;60173;52.112;8.648;2023-05-12T01:13:27;100614.16;;;10.71;100.00
72262;BME280;60173;52.112;8.648;2023-05-12T01:15:55;100616.41;;;10.64;100.00
72262;BME280;60173;52.112;8.648;2023-05-12T01:18:22;100612.84;;;10.69;100.00
72262;BME280;60173;52.112;8.648;2023-05-12T01:20:50;100612.09;;;10.63;100.00
72262;BME280;60173;52.112;8.648;2023-05-12T01:23:18;100609.09;;;10.65;100.00
72262;BME280;60173;52.112;8.648;2023-05-12T01:25:47;100607.00;;;10.75;100.00
72262;BME280;60173;52.112;8.648;2023-05-12T01:28:14;100616.22;;;10.79;100.00
72262;BME280;60173;52.112;8.648;2023-05-12T01:30:42;100613.97;;;10.81;100.00
72262;BME280;60173;52.112;8.648;2023-05-12T01:33:09;100613.97;;;10.81;100.00
72262;BME280;60173;52.112;8.648;2023-05-12T01:35:35;100611.78;;;10.83;100.00
72262;BME280;60173;52.112;8.648;2023-05-12T01:38:01;100611.84;;;10.78;100.00
72262;BME280;60173;52.112;8.648;2023-05-12T01:40:28;100617.75;;;10.67;100.00
72262;BME280;60173;52.112;8.648;2023-05-12T01:42:54;100622.97;;;10.63;100.00
72262;BME280;60173;52.112;8.648;2023-05-12T01:45:20;100630.28;;;10.81;100.00
72262;BME280;60173;52.112;8.648;2023-05-12T01:47:47;100626.75;;;10.81;100.00
72262;BME280;60173;52.112;8.648;2023-05-12T01:50:13;100629.19;;;10.82;100.00
72262;BME280;60173;52.112;8.648;2023-05-12T01:52:39;100630.38;;;10.76;100.00
72262;BME280;60173;52.112;8.648;2023-05-12T01:55:06;100633.75;;;10.68;100.00
72262;BME280;60173;52.112;8.648;2023-05-12T01:57:32;100638.53;;;10.76;100.00
72262;BME280;60173;52.112;8.648;2023-05-12T01:59:58;100632.59;;;10.74;100.00
72262;BME280;60173;52.112;8.648;2023-05-12T02:02:25;100639.03;;;10.59;100.00
72262;BME280;60173;52.112;8.648;2023-05-12T02:04:51;100640.44;;;10.57;100.00
72262;BME280;60173;52.112;8.648;2023-05-12T02:07:18;100648.38;;;10.53;100.00
72262;BME280;60173;52.112;8.648;2023-05-12T02:09:44;100640.44;;;10.57;100.00
72262;BME280;60173;52.112;8.648;2023-05-12T02:12:11;100641.38;;;10.66;100.00
72262;BME280;60173;52.112;8.648;2023-05-12T02:14:37;100633.16;;;10.71;100.00
72262;BME280;60173;52.112;8.648;2023-05-12T02:17:03;100639.63;;;10.75;100.00
72262;BME280;60173;52.112;8.648;2023-05-12T02:19:30;100634.72;;;10.77;100.00
72262;BME280;60173;52.112;8.648;2023-05-12T02:21:56;100638.38;;;10.86;100.00
72262;BME280;60173;52.112;8.648;2023-05-12T02:24:22;100635.28;;;10.74;100.00
72262;BME280;60173;52.112;8.648;2023-05-12T02:26:49;100631.69;;;10.79;100.00
72262;BME280;60173;52.112;8.648;2023-05-12T02:29:15;100639.69;;;10.70;100.00
72262;BME280;60173;52.112;8.648;2023-05-12T02:31:41;100634.34;;;10.65;100.00
72262;BME280;60173;52.112;8.648;2023-05-12T02:34:08;100648.44;;;10.67;100.00
72262;BME280;60173;52.112;8.648;2023-05-12T02:36:34;100652.41;;;10.75;100.00
72262;BME280;60173;52.112;8.648;2023-05-12T02:39:00;100649.41;;;10.76;100.00
72262;BME280;60173;52.112;8.648;2023-05-12T02:41:27;100654.97;;;10.66;100.00
72262;BME280;60173;52.112;8.648;2023-05-12T02:43:53;100650.13;;;10.63;100.00
72262;BME280;60173;52.112;8.648;2023-05-12T02:46:19;100641.97;;;10.63;100.00
72262;BME280;60173;52.112;8.648;2023-05-12T02:48:46;100647.63;;;10.67;100.00
72262;BME280;60173;52.112;8.648;2023-05-12T02:51:12;100645.22;;;10.65;100.00
72262;BME280;60173;52.112;8.648;2023-05-12T02:53:39;100647.28;;;10.73;100.00
72262;BME280;60173;52.112;8.648;2023-05-12T02:56:05;100637.56;;;10.86;100.00
72262;BME280;60173;52.112;8.648;2023-05-12T02:58:31;100642.66;;;10.74;100.00
72262;BME280;60173;52.112;8.648;2023-05-12T03:00:58;100634.41;;;10.79;100.00
72262;BME280;60173;52.112;8.648;2023-05-12T03:03:36;100637.50;;;10.72;100.00
72262;BME280;60173;52.112;8.648;2023-05-12T03:06:03;100642.03;;;10.58;100.00
72262;BME280;60173;52.112;8.648;2023-05-12T03:08:30;100641.75;;;10.59;100.00
72262;BME280;60173;52.112;8.648;2023-05-12T03:10:56;100633.00;;;10.81;100.00
72262;BME280;60173;52.112;8.648;2023-05-12T03:13:23;100647.28;;;10.73;100.00
72262;BME280;60173;52.112;8.648;2023-05-12T03:15:49;100639.03;;;10.59;100.00
72262;BME280;60173;52.112;8.648;2023-05-12T03:18:15;100643.00;;;10.48;100.00
72262;BME280;60173;52.112;8.648;2023-05-12T03:20:42;100641.44;;;10.61;100.00
72262;BME280;60173;52.112;8.648;2023-05-12T03:23:08;100643.69;;;10.59;100.00
72262;BME280;60173;52.112;8.648;2023-05-12T03:25:34;100638.97;;;10.46;100.00
72262;BME280;60173;52.112;8.648;2023-05-12T03:28:01;100646.41;;;10.59;100.00
72262;BME280;60173;52.112;8.648;2023-05-12T03:30:27;100643.94;;;10.38;100.00
72262;BME280;60173;52.112;8.648;2023-05-12T03:32:54;100645.34;;;10.36;100.00
72262;BME280;60173;52.112;8.648;2023-05-12T03:35:20;100641.31;;;10.71;100.00
72262;BME280;60173;52.112;8.648;2023-05-12T03:37:46;100638.84;;;10.56;100.00
72262;BME280;60173;52.112;8.648;2023-05-12T03:40:13;100642.00;;;10.82;100.00
72262;BME280;60173;52.112;8.648;2023-05-12T03:42:39;100646.88;;;10.61;100.00
72262;BME280;60173;52.112;8.648;2023-05-12T03:45:06;100649.22;;;10.49;100.00
72262;BME280;60173;52.112;8.648;2023-05-12T03:47:32;100656.84;;;10.47;100.00
72262;BME280;60173;52.112;8.648;2023-05-12T03:49:59;100654.13;;;10.47;100.00
72262;BME280;60173;52.112;8.648;2023-05-12T03:52:25;100637.50;;;10.72;100.00
72262;BME280;60173;52.112;8.648;2023-05-12T03:54:52;100645.66;;;10.91;100.00
72262;BME280;60173;52.112;8.648;2023-05-12T03:57:18;100648.91;;;11.07;100.00
72262;BME280;60173;52.112;8.648;2023-05-12T03:59:44;100650.97;;;11.15;100.00
72262;BME280;60173;52.112;8.648;2023-05-12T04:02:10;100651.97;;;11.19;100.00
72262;BME280;60173;52.112;8.648;2023-05-12T04:04:37;100655.66;;;11.28;100.00
72262;BME280;60173;52.112;8.648;2023-05-12T04:07:03;100652.41;;;11.26;100.00
72262;BME280;60173;52.112;8.648;2023-05-12T04:09:31;100653.94;;;11.32;100.00
72262;BME280;60173;52.112;8.648;2023-05-12T04:11:57;100658.25;;;11.34;100.00
72262;BME280;60173;52.112;8.648;2023-05-12T04:14:24;100653.41;;;11.30;100.00
72262;BME280;60173;52.112;8.648;2023-05-12T04:17:07;100655.84;;;11.32;100.00
72262;BME280;60173;52.112;8.648;2023-05-12T04:19:33;100653.25;;;11.41;100.00
72262;BME280;60173;52.112;8.648;2023-05-12T04:21:59;100659.69;;;11.45;100.00
72262;BME280;60173;52.112;8.648;2023-05-12T04:24:26;100657.19;;;11.48;100.00
72262;BME280;60173;52.112;8.648;2023-05-12T04:26:52;100664.66;;;11.57;100.00
72262;BME280;60173;52.112;8.648;2023-05-12T04:29:18;100672.53;;;11.58;100.00
72262;BME280;60173;52.112;8.648;2023-05-12T04:31:45;100677.88;;;11.63;100.00
72262;BME280;60173;52.112;8.648;2023-05-12T04:34:11;100677.78;;;11.68;100.00
72262;BME280;60173;52.112;8.648;2023-05-12T04:36:37;100684.84;;;11.69;100.00
72262;BME280;60173;52.112;8.648;2023-05-12T04:39:04;100675.88;;;11.69;100.00
72262;BME280;60173;52.112;8.648;2023-05-12T04:41:30;100680.91;;;11.75;100.00
72262;BME280;60173;52.112;8.648;2023-05-12T04:43:56;100679.72;;;11.82;100.00
72262;BME280;60173;52.112;8.648;2023-05-12T04:46:26;100691.53;;;11.91;100.00
72262;BME280;60173;52.112;8.648;2023-05-12T04:48:52;100688.22;;;11.94;100.00
72262;BME280;60173;52.112;8.648;2023-05-12T04:51:18;100689.84;;;11.95;100.00
72262;BME280;60173;52.112;8.648;2023-05-12T04:53:45;100698.72;;;12.01;100.00
72262;BME280;60173;52.112;8.648;2023-05-12T04:56:11;100694.28;;;12.05;100.00
72262;BME280;60173;52.112;8.648;2023-05-12T04:58:37;100700.94;;;12.12;100.00
72262;BME280;60173;52.112;8.648;2023-05-12T05:01:04;100699.63;;;12.24;100.00
72262;BME280;60173;52.112;8.648;2023-05-12T05:03:30;100695.81;;;12.25;100.00
72262;BME280;60173;52.112;8.648;2023-05-12T05:05:57;100715.66;;;12.25;100.00
72262;BME280;60173;52.112;8.648;2023-05-12T05:08:23;100715.25;;;12.32;100.00
72262;BME280;60173;52.112;8.648;2023-05-12T05:10:49;100716.28;;;12.36;100.00
72262;BME280;60173;52.112;8.648;2023-05-12T05:13:16;100719.19;;;12.39;100.00
72262;BME280;60173;52.112;8.648;2023-05-12T05:15:52;100722.53;;;12.50;100.00
72262;BME280;60173;52.112;8.648;2023-05-12T05:18:18;100721.81;;;12.44;100.00
72262;BME280;60173;52.112;8.648;2023-05-12T05:20:49;100722.72;;;12.54;100.00
72262;BME280;60173;52.112;8.648;2023-05-12T05:23:23;100732.59;;;12.50;100.00
72262;BME280;60173;52.112;8.648;2023-05-12T05:25:49;100740.75;;;12.50;100.00
72262;BME280;60173;52.112;8.648;2023-05-12T05:28:16;100737.84;;;12.60;100.00
72262;BME280;60173;52.112;8.648;2023-05-12T05:30:42;100742.56;;;12.68;100.00
72262;BME280;60173;52.112;8.648;2023-05-12T05:33:08;100739.06;;;12.68;100.00
72262;BME280;60173;52.112;8.648;2023-05-12T05:35:35;100745.50;;;12.72;100.00
72262;BME280;60173;52.112;8.648;2023-05-12T05:38:01;100749.72;;;12.78;100.00
72262;BME280;60173;52.112;8.648;2023-05-12T05:40:28;100747.50;;;12.80;100.00
72262;BME280;60173;52.112;8.648;2023-05-12T05:43:03;100754.34;;;12.91;100.00
72262;BME280;60173;52.112;8.648;2023-05-12T05:45:30;100750.13;;;12.85;100.00
72262;BME280;60173;52.112;8.648;2023-05-12T05:47:56;100762.00;;;12.89;100.00
72262;BME280;60173;52.112;8.648;2023-05-12T05:50:23;100753.63;;;12.99;100.00
72262;BME280;60173;52.112;8.648;2023-05-12T05:52:49;100747.03;;;13.00;100.00
72262;BME280;60173;52.112;8.648;2023-05-12T05:55:15;100754.50;;;13.08;100.00
72262;BME280;60173;52.112;8.648;2023-05-12T05:57:42;100761.44;;;13.15;100.00
72262;BME280;60173;52.112;8.648;2023-05-12T06:00:09;100764.69;;;13.17;100.00
72262;BME280;60173;52.112;8.648;2023-05-12T06:02:35;100774.84;;;13.25;100.00
72262;BME280;60173;52.112;8.648;2023-05-12T06:05:02;100773.84;;;13.21;100.00
72262;BME280;60173;52.112;8.648;2023-05-12T06:07:28;100775.84;;;13.43;100.00
72262;BME280;60173;52.112;8.648;2023-05-12T06:09:54;100782.06;;;13.57;99.10
72262;BME280;60173;52.112;8.648;2023-05-12T06:12:21;100777.41;;;13.57;99.59
72262;BME280;60173;52.112;8.648;2023-05-12T06:14:47;100781.72;;;13.59;99.22
72262;BME280;60173;52.112;8.648;2023-05-12T06:17:14;100782.06;;;13.57;99.79
72262;BME280;60173;52.112;8.648;2023-05-12T06:19:40;100787.91;;;13.50;99.38
72262;BME280;60173;52.112;8.648;2023-05-12T06:22:06;100781.72;;;13.59;100.00
72262;BME280;60173;52.112;8.648;2023-05-12T06:24:32;100792.69;;;13.67;99.74
72262;BME280;60173;52.112;8.648;2023-05-12T06:26:59;100797.28;;;13.81;98.87
72262;BME280;60173;52.112;8.648;2023-05-12T06:29:25;100799.97;;;13.94;97.30
72262;BME280;60173;52.112;8.648;2023-05-12T06:31:51;100798.13;;;14.12;95.74
72262;BME280;60173;52.112;8.648;2023-05-12T06:34:18;100794.84;;;14.01;95.06
72262;BME280;60173;52.112;8.648;2023-05-12T06:36:44;100795.97;;;14.00;95.80
72262;BME280;60173;52.112;8.648;2023-05-12T06:39:11;100804.16;;;14.00;94.87
72262;BME280;60173;52.112;8.648;2023-05-12T06:41:37;100796.44;;;14.02;95.26
72262;BME280;60173;52.112;8.648;2023-05-12T06:44:03;100796.22;;;13.90;95.69
72262;BME280;60173;52.112;8.648;2023-05-12T06:46:30;100795.97;;;14.00;96.64
72262;BME280;60173;52.112;8.648;2023-05-12T06:48:56;100794.69;;;13.53;99.04
72262;BME280;60173;52.112;8.648;2023-05-12T06:51:23;100803.56;;;13.81;99.44
72262;BME280;60173;52.112;8.648;2023-05-12T06:53:49;100802.28;;;14.10;96.34
72262;BME280;60173;52.112;8.648;2023-05-12T06:56:15;100796.75;;;14.63;94.07
72262;BME280;60173;52.112;8.648;2023-05-12T06:58:44;100800.50;;;14.76;91.77
72262;BME280;60173;52.112;8.648;2023-05-12T07:01:11;100802.63;;;14.88;91.03
72262;BME280;60173;52.112;8.648;2023-05-12T07:03:37;100794.88;;;14.41;91.50
72262;BME280;60173;52.112;8.648;2023-05-12T07:06:03;100804.09;;;14.23;92.23
72262;BME280;60173;52.112;8.648;2023-05-12T07:08:30;100810.50;;;15.07;91.69
72262;BME280;60173;52.112;8.648;2023-05-12T07:10:59;100802.81;;;15.26;90.11
72262;BME280;60173;52.112;8.648;2023-05-12T07:13:25;100806.06;;;15.46;89.74
72262;BME280;60173;52.112;8.648;2023-05-12T07:15:52;100797.34;;;15.26;87.22
72262;BME280;60173;52.112;8.648;2023-05-12T07:18:18;100801.53;;;15.67;86.54
72262;BME280;60173;52.112;8.648;2023-05-12T07:20:45;100797.31;;;15.96;85.18
72262;BME280;60173;52.112;8.648;2023-05-12T07:23:12;100797.34;;;15.61;84.29
72262;BME280;60173;52.112;8.648;2023-05-12T07:25:38;100797.78;;;16.07;83.77
72262;BME280;60173;52.112;8.648;2023-05-12T07:28:04;100793.91;;;16.46;81.11
72262;BME280;60173;52.112;8.648;2023-05-12T07:30:31;100796.91;;;16.62;81.21
72262;BME280;60173;52.112;8.648;2023-05-12T07:32:57;100791.69;;;16.78;81.34
72262;BME280;60173;52.112;8.648;2023-05-12T07:35:24;100791.03;;;16.72;80.17
72262;BME280;60173;52.112;8.648;2023-05-12T07:37:50;100788.16;;;16.77;78.69
72262;BME280;60173;52.112;8.648;2023-05-12T07:40:16;100783.81;;;16.97;77.79
72262;BME280;60173;52.112;8.648;2023-05-12T07:42:43;100797.31;;;15.96;81.75
72262;BME280;60173;52.112;8.648;2023-05-12T07:45:09;100792.06;;;16.67;76.76
72262;BME280;60173;52.112;8.648;2023-05-12T07:47:36;100787.69;;;16.28;77.19
72262;BME280;60173;52.112;8.648;2023-05-12T07:50:02;100799.44;;;15.81;78.78
72262;BME280;60173;52.112;8.648;2023-05-12T07:52:28;100796.63;;;16.16;78.62
72262;BME280;60173;52.112;8.648;2023-05-12T07:54:55;100797.00;;;16.83;76.67
72262;BME280;60173;52.112;8.648;2023-05-12T07:57:22;100796.13;;;16.91;74.88
72262;BME280;60173;52.112;8.648;2023-05-12T07:59:49;100808.94;;;15.93;78.44
72262;BME280;60173;52.112;8.648;2023-05-12T08:02:15;100800.28;;;16.29;78.41
72262;BME280;60173;52.112;8.648;2023-05-12T08:04:42;100804.88;;;16.46;77.38
72262;BME280;60173;52.112;8.648;2023-05-12T08:07:09;100801.91;;;16.21;77.33
72262;BME280;60173;52.112;8.648;2023-05-12T08:09:36;100797.59;;;16.20;77.42
72262;BME280;60173;52.112;8.648;2023-05-12T08:12:02;100799.69;;;16.91;76.21
72262;BME280;60173;52.112;8.648;2023-05-12T08:14:29;100800.47;;;16.92;73.67
72262;BME280;60173;52.112;8.648;2023-05-12T08:16:55;100788.56;;;16.88;78.05
72262;BME280;60173;52.112;8.648;2023-05-12T08:19:21;100796.56;;;17.23;77.28
72262;BME280;60173;52.112;8.648;2023-05-12T08:21:48;100791.38;;;16.41;78.70
72262;BME280;60173;52.112;8.648;2023-05-12T08:24:14;100800.28;;;16.67;81.09
72262;BME280;60173;52.112;8.648;2023-05-12T08:26:40;100794.56;;;17.11;79.11
72262;BME280;60173;52.112;8.648;2023-05-12T08:29:06;100793.81;;;17.23;76.68
72262;BME280;60173;52.112;8.648;2023-05-12T08:31:33;100795.47;;;16.64;72.23
72262;BME280;60173;52.112;8.648;2023-05-12T08:33:59;100793.63;;;16.39;72.68
72262;BME280;60173;52.112;8.648;2023-05-12T08:36:37;100789.00;;;17.20;75.35
72262;BME280;60173;52.112;8.648;2023-05-12T08:39:03;100788.19;;;17.19;74.86
72262;BME280;60173;52.112;8.648;2023-05-12T08:43:57;100793.94;;;17.05;75.02
72262;BME280;60173;52.112;8.648;2023-05-12T08:46:24;100807.00;;;16.49;75.18
72262;BME280;60173;52.112;8.648;2023-05-12T08:48:52;100796.81;;;17.09;73.20
72262;BME280;60173;52.112;8.648;2023-05-12T08:51:21;100795.41;;;17.03;73.27
72262;BME280;60173;52.112;8.648;2023-05-12T08:53:49;100796.38;;;17.28;74.30
72262;BME280;60173;52.112;8.648;2023-05-12T08:56:18;100797.75;;;17.55;74.48
72262;BME280;60173;52.112;8.648;2023-05-12T08:58:48;100799.41;;;17.47;72.07
72262;BME280;60173;52.112;8.648;2023-05-12T09:01:15;100797.53;;;17.60;71.88
72262;BME280;60173;52.112;8.648;2023-05-12T09:03:43;100801.25;;;17.97;71.95
72262;BME280;60173;52.112;8.648;2023-05-12T09:06:10;100786.13;;;17.91;70.91
72262;BME280;60173;52.112;8.648;2023-05-12T09:08:37;100795.78;;;18.22;70.67
72262;BME280;60173;52.112;8.648;2023-05-12T09:11:04;100800.41;;;18.42;72.94
72262;BME280;60173;52.112;8.648;2023-05-12T09:13:59;100794.00;;;17.93;70.41
72262;BME280;60173;52.112;8.648;2023-05-12T09:16:28;100795.69;;;18.18;70.70
72262;BME280;60173;52.112;8.648;2023-05-12T09:18:57;100794.81;;;17.93;67.86
72262;BME280;60173;52.112;8.648;2023-05-12T09:21:24;100786.97;;;18.16;70.65
72262;BME280;60173;52.112;8.648;2023-05-12T09:23:56;100788.91;;;18.28;69.49
72262;BME280;60173;52.112;8.648;2023-05-12T09:26:24;100793.53;;;18.48;67.72
72262;BME280;60173;52.112;8.648;2023-05-12T09:28:53;100795.03;;;18.95;67.61
72262;BME280;60173;52.112;8.648;2023-05-12T09:31:21;100795.34;;;19.06;66.26
72262;BME280;60173;52.112;8.648;2023-05-12T09:33:51;100797.69;;;18.79;66.06
72262;BME280;60173;52.112;8.648;2023-05-12T09:36:19;100797.88;;;18.62;64.45
72262;BME280;60173;52.112;8.648;2023-05-12T09:38:46;100787.13;;;18.81;64.74
72262;BME280;60173;52.112;8.648;2023-05-12T09:41:23;100789.78;;;18.78;66.24
72262;BME280;60173;52.112;8.648;2023-05-12T09:43:51;100790.09;;;18.27;64.18
72262;BME280;60173;52.112;8.648;2023-05-12T09:46:18;100799.75;;;17.67;67.17
72262;BME280;60173;52.112;8.648;2023-05-12T09:48:46;100789.75;;;18.28;66.56
72262;BME280;60173;52.112;8.648;2023-05-12T09:51:15;100788.97;;;18.77;68.94
72262;BME280;60173;52.112;8.648;2023-05-12T09:53:42;100789.16;;;18.60;67.06
72262;BME280;60173;52.112;8.648;2023-05-12T09:56:13;100790.78;;;18.61;67.29
72262;BME280;60173;52.112;8.648;2023-05-12T09:58:46;100788.50;;;18.87;64.86
72262;BME280;60173;52.112;8.648;2023-05-12T10:01:15;100792.16;;;18.55;67.13
72262;BME280;60173;52.112;8.648;2023-05-12T10:03:56;100792.41;;;18.86;67.05
72262;BME280;60173;52.112;8.648;2023-05-12T10:06:26;100799.22;;;19.17;64.51
72262;BME280;60173;52.112;8.648;2023-05-12T10:09:00;100798.06;;;19.86;66.32
72262;BME280;60173;52.112;8.648;2023-05-12T10:11:28;100795.41;;;19.62;62.99
72262;BME280;60173;52.112;8.648;2023-05-12T10:13:55;100799.03;;;19.78;64.04
72262;BME280;60173;52.112;8.648;2023-05-12T10:16:23;100797.44;;;19.77;66.28
72262;BME280;60173;52.112;8.648;2023-05-12T10:18:49;100792.47;;;19.99;60.04
72262;BME280;60173;52.112;8.648;2023-05-12T10:21:17;100798.28;;;19.94;61.75
72262;BME280;60173;52.112;8.648;2023-05-12T10:23:44;100797.97;;;19.83;65.61
72262;BME280;60173;52.112;8.648;2023-05-12T10:26:11;100790.59;;;19.31;65.29
72262;BME280;60173;52.112;8.648;2023-05-12T10:28:39;100798.50;;;19.32;69.04
72262;BME280;60173;52.112;8.648;2023-05-12T10:31:06;100789.38;;;19.16;66.91
72262;BME280;60173;52.112;8.648;2023-05-12T10:33:33;100796.13;;;19.59;67.24
72262;BME280;60173;52.112;8.648;2023-05-12T10:35:59;100786.00;;;19.63;62.96
72262;BME280;60173;52.112;8.648;2023-05-12T10:38:26;100790.16;;;19.57;61.69
72262;BME280;60173;52.112;8.648;2023-05-12T10:41:01;100797.03;;;20.07;59.55
72262;BME280;60173;52.112;8.648;2023-05-12T10:43:39;100791.97;;;20.09;59.16
72262;BME280;60173;52.112;8.648;2023-05-12T10:46:16;100796.06;;;20.47;59.11
72262;BME280;60173;52.112;8.648;2023-05-12T10:49:07;100795.81;;;20.52;58.02
72262;BME280;60173;52.112;8.648;2023-05-12T10:51:45;100793.25;;;20.59;55.81
72262;BME280;60173;52.112;8.648;2023-05-12T10:54:19;100789.84;;;20.50;56.91
72262;BME280;60173;52.112;8.648;2023-05-12T10:56:46;100797.97;;;20.94;58.80
72262;BME280;60173;52.112;8.648;2023-05-12T10:59:15;100784.63;;;20.96;56.11
72262;BME280;60173;52.112;8.648;2023-05-12T11:04:36;100796.78;;;20.75;58.35
72262;BME280;60173;52.112;8.648;2023-05-12T11:07:04;100787.50;;;21.19;60.70
72262;BME280;60173;52.112;8.648;2023-05-12T11:09:34;100797.63;;;20.95;54.90
72262;BME280;60173;52.112;8.648;2023-05-12T11:12:02;100790.06;;;20.57;53.37
72262;BME280;60173;52.112;8.648;2023-05-12T11:14:30;100793.38;;;20.82;51.46
72262;BME280;60173;52.112;8.648;2023-05-12T11:16:56;100792.84;;;20.76;51.12
72262;BME280;60173;52.112;8.648;2023-05-12T11:19:22;100782.56;;;20.58;52.13
72262;BME280;60173;52.112;8.648;2023-05-12T11:21:50;100773.75;;;21.22;52.57
72262;BME280;60173;52.112;8.648;2023-05-12T11:24:16;100784.47;;;20.89;53.45
72262;BME280;60173;52.112;8.648;2023-05-12T11:26:42;100785.06;;;20.63;54.11
72262;BME280;60173;52.112;8.648;2023-05-12T11:29:09;100783.81;;;20.60;52.56
72262;BME280;60173;52.112;8.648;2023-05-12T11:31:35;100786.63;;;20.80;49.92
72262;BME280;60173;52.112;8.648;2023-05-12T11:34:06;100786.13;;;20.58;50.35
72262;BME280;60173;52.112;8.648;2023-05-12T11:36:40;100783.97;;;20.67;48.89
72262;BME280;60173;52.112;8.648;2023-05-12T11:39:12;100786.69;;;21.18;47.88
72262;BME280;60173;52.112;8.648;2023-05-12T11:41:39;100783.25;;;21.06;46.47
72262;BME280;60173;52.112;8.648;2023-05-12T11:44:15;100794.28;;;21.06;47.08
72262;BME280;60173;52.112;8.648;2023-05-12T11:47:01;100777.84;;;21.09;48.12
72262;BME280;60173;52.112;8.648;2023-05-12T11:49:29;100788.13;;;21.48;47.66
72262;BME280;60173;52.112;8.648;2023-05-12T11:51:59;100777.84;;;21.48;46.00
72262;BME280;60173;52.112;8.648;2023-05-12T11:54:27;100787.00;;;21.33;44.98
72262;BME280;60173;52.112;8.648;2023-05-12T11:56:55;100791.69;;;21.48;43.84
72262;BME280;60173;52.112;8.648;2023-05-12T11:59:27;100790.53;;;20.94;42.33
72262;BME280;60173;52.112;8.648;2023-05-12T12:01:54;100799.34;;;21.19;44.72
72262;BME280;60173;52.112;8.648;2023-05-12T12:04:33;100798.38;;;21.47;44.76
72262;BME280;60173;52.112;8.648;2023-05-12T12:07:00;100794.72;;;21.62;43.79
72262;BME280;60173;52.112;8.648;2023-05-12T12:09:38;100790.69;;;20.86;43.28
72262;BME280;60173;52.112;8.648;2023-05-12T12:12:06;100792.38;;;20.90;45.12
72262;BME280;60173;52.112;8.648;2023-05-12T12:14:34;100800.97;;;21.59;47.07
72262;BME280;60173;52.112;8.648;2023-05-12T12:17:01;100793.66;;;21.48;42.84
72262;BME280;60173;52.112;8.648;2023-05-12T12:19:27;100788.25;;;21.55;43.63
72262;BME280;60173;52.112;8.648;2023-05-12T12:21:55;100792.75;;;21.82;40.83
72262;BME280;60173;52.112;8.648;2023-05-12T12:24:22;100786.72;;;21.57;41.78
72262;BME280;60173;52.112;8.648;2023-05-12T12:26:49;100796.25;;;21.60;39.98
72262;BME280;60173;52.112;8.648;2023-05-12T12:29:16;100801.72;;;21.76;39.87
72262;BME280;60173;52.112;8.648;2023-05-12T12:31:42;100792.06;;;21.47;40.26
72262;BME280;60173;52.112;8.648;2023-05-12T12:34:09;100803.00;;;21.82;39.31
72262;BME280;60173;52.112;8.648;2023-05-12T12:36:36;100801.38;;;21.81;39.50
72262;BME280;60173;52.112;8.648;2023-05-12T12:39:02;100795.34;;;21.75;41.23
72262;BME280;60173;52.112;8.648;2023-05-12T12:41:28;100788.16;;;21.90;42.11
72262;BME280;60173;52.112;8.648;2023-05-12T12:43:55;100796.59;;;21.78;41.31
72262;BME280;60173;52.112;8.648;2023-05-12T12:46:21;100795.00;;;21.57;40.30
72262;BME280;60173;52.112;8.648;2023-05-12T12:48:47;100785.97;;;21.80;40.50
72262;BME280;60173;52.112;8.648;2023-05-12T12:51:14;100779.94;;;22.40;42.18
72262;BME280;60173;52.112;8.648;2023-05-12T12:53:40;100789.13;;;22.01;39.76